Saint Helens, OR (97051)

11:20 AM PST en Noviembre 27, 2014 (GMT -0800)
Arbor Hill, Sykes Rd. | Change Station
CLOSE
Current Station
Estación meteorológica personal
Location: St. Helens, OR
Altura: 200 ft
Estaciones meteorológicas cercanas
Aviso en curso: Special Statement Aviso activo: Record Report

Alt 200 ft 45.85 °N, 122.85 °W | Updated 14 seconds ago

Nublado
Nublado
54.9 ° F
Sensación térmica 54.9 ° F
N
6.0
Viento Variable Viento desde SE
Gusts 6.0 mph

Hoy
Alta -- | Baja -- ° F
--% Posibilidad de precipitaciones
Ayer
Alta -- | Baja -- ° F
Precip. -- pul
7:27 AM 4:30 PM
Creciente, 32% visible
Presión 29.95 pul
Visibilidad 10.0 Millas
Nubes Nublado 2700 ft
Punto de rocío 51 ° F
Humedad 86%
Precipitaciones 0.05 pul
Espesor de la nieve No disponible.
UV 1 de una escala de 12
Polen .30 de una escala de 12
Calidad del aire No disponible.
Flu Activity No disponible.
METAR KSPB 271853Z AUTO 11007KT 10SM -RA OVC027 13/10 A2995 RMK AO2 RAE30B49 SLP142 P0001 T01280100

More Conditions Fewer Conditions

Presión 29.95 pul
Visibilidad 10.0 Millas
Nubes Nublado 2700 ft
Punto de rocío 51 ° F
Humedad 86%
Precipitaciones 0.05 pul
Espesor de la nieve No disponible.
UV 1 de una escala de 12
Polen .30 de una escala de 12
Calidad del aire No disponible.
Flu Activity No disponible.
METAR KSPB 271853Z AUTO 11007KT 10SM -RA OVC027 13/10 A2995 RMK AO2 RAE30B49 SLP142 P0001 T01280100

More Conditions Fewer Conditions

10-Day Weather Forecast

Almanac

Astronomía

Nov. 27, 2014 Salida Puesta
Hora real
Crepúsculo civil
Crepúsculo náutico
Crepúsculo astronómico
Luna
Horas de luz
Horas de luz
Tomorrow will be .
, % of the Moon is Illuminated

Extremos de hoy

Máximos del estado Bajos del estado

Community

WunderPhotos

Upload Photos

1,774,092 ¡fotos cargadas!

WunderBlogs® & News

Nearby

Calidad del aire

  Calidad del aire Índice AQ Contaminante
Not available.

Grosos de nieve

Estación Profundido Altura

Actividad de terremotos

Ciudad Distance Mag. Tiempo y dato
Magnitud mínima muestra es 2,5.

Temperaturas de aguas costeras

Lugar Temperatura

Estaciones meteorológicas cercanas